createdAt,value
2023-04-30T00:00:08.669Z,3.80
2023-04-30T00:02:37.494Z,3.77
2023-04-30T00:05:06.319Z,3.93
2023-04-30T00:07:34.946Z,3.97
2023-04-30T00:10:05.580Z,3.57
2023-04-30T00:12:33.853Z,4.80
2023-04-30T00:15:04.742Z,3.60
2023-04-30T00:17:33.206Z,4.40
2023-04-30T00:20:01.804Z,3.73
2023-04-30T00:22:30.116Z,3.70
2023-04-30T00:24:58.545Z,3.77
2023-04-30T00:27:28.434Z,3.80
2023-04-30T00:29:57.091Z,3.63
2023-04-30T00:32:25.591Z,4.03
2023-04-30T00:34:54.245Z,4.50
2023-04-30T00:37:22.748Z,4.30
2023-04-30T00:39:51.308Z,4.77
2023-04-30T00:42:30.119Z,4.73
2023-04-30T00:45:00.006Z,4.10
2023-04-30T00:47:28.958Z,4.00
2023-04-30T00:49:57.375Z,4.40
2023-04-30T00:52:27.328Z,4.10
2023-04-30T00:54:55.774Z,3.97
2023-04-30T00:57:24.680Z,4.07
2023-04-30T00:59:53.371Z,4.07
2023-04-30T01:02:24.102Z,4.40
2023-04-30T01:04:52.627Z,4.40
2023-04-30T01:07:23.484Z,4.33
2023-04-30T01:09:52.027Z,4.20
2023-04-30T01:12:22.714Z,4.47
2023-04-30T01:15:02.818Z,4.50
2023-04-30T01:17:35.982Z,4.57
2023-04-30T01:20:06.155Z,4.20
2023-04-30T01:22:38.971Z,4.53
2023-04-30T01:25:18.398Z,4.27
2023-04-30T01:28:08.773Z,5.03
2023-04-30T01:30:38.082Z,4.00
2023-04-30T01:33:06.506Z,4.60
2023-04-30T01:35:43.868Z,4.73
2023-04-30T01:38:15.949Z,4.30
2023-04-30T01:40:46.315Z,4.63
2023-04-30T01:43:22.309Z,4.97
2023-04-30T01:46:09.174Z,4.50
2023-04-30T01:48:42.316Z,4.70
2023-04-30T01:51:17.588Z,4.87
2023-04-30T01:53:47.496Z,5.07
2023-04-30T01:56:22.170Z,4.27
2023-04-30T01:59:02.622Z,4.47
2023-04-30T02:01:31.580Z,4.53
2023-04-30T02:04:03.742Z,4.73
2023-04-30T02:06:32.603Z,3.80
2023-04-30T02:09:05.394Z,5.40
2023-04-30T02:11:34.077Z,4.53
2023-04-30T02:14:08.299Z,4.90
2023-04-30T02:16:38.277Z,5.03
2023-04-30T02:19:06.564Z,4.30
2023-04-30T02:21:34.881Z,4.13
2023-04-30T02:24:03.565Z,4.73
2023-04-30T02:26:31.989Z,4.80
2023-04-30T02:29:00.252Z,5.07
2023-04-30T02:31:30.921Z,4.77
2023-04-30T02:33:59.750Z,4.60
2023-04-30T02:36:36.498Z,5.60
2023-04-30T02:39:05.045Z,4.80
2023-04-30T02:41:33.834Z,4.87
2023-04-30T02:44:02.095Z,4.83
2023-04-30T02:46:32.008Z,5.33
2023-04-30T02:49:00.550Z,4.93
2023-04-30T02:51:29.600Z,4.90
2023-04-30T02:53:58.401Z,5.33
2023-04-30T02:56:29.123Z,5.37
2023-04-30T02:58:58.062Z,5.27
2023-04-30T03:01:27.721Z,4.97
2023-04-30T03:03:58.789Z,5.67
2023-04-30T03:06:28.691Z,5.17
2023-04-30T03:08:57.067Z,5.10
2023-04-30T03:11:25.382Z,5.97
2023-04-30T03:13:53.765Z,4.77
2023-04-30T03:16:23.084Z,5.13
2023-04-30T03:18:51.639Z,5.27
2023-04-30T03:21:21.419Z,4.97
2023-04-30T03:23:50.162Z,5.80
2023-04-30T03:26:18.794Z,5.40
2023-04-30T03:28:47.062Z,5.90
2023-04-30T03:31:15.450Z,5.37
2023-04-30T03:33:43.952Z,5.37
2023-04-30T03:36:12.886Z,4.93
2023-04-30T03:38:42.912Z,5.63
2023-04-30T03:41:11.713Z,4.77
2023-04-30T03:43:40.000Z,5.70
2023-04-30T03:46:08.675Z,5.70
2023-04-30T03:48:37.037Z,5.37
2023-04-30T03:51:06.375Z,5.87
2023-04-30T03:53:34.568Z,5.63
2023-04-30T03:56:04.250Z,5.60
2023-04-30T03:58:32.516Z,6.53
2023-04-30T04:01:03.478Z,5.43
2023-04-30T04:03:32.244Z,5.00
2023-04-30T04:06:00.694Z,5.40
2023-04-30T04:08:29.335Z,5.73
2023-04-30T04:10:57.625Z,5.90
2023-04-30T04:13:27.468Z,6.17
2023-04-30T04:15:55.856Z,5.80
2023-04-30T04:18:25.844Z,5.87
2023-04-30T04:20:54.141Z,5.83
2023-04-30T04:23:22.524Z,6.00
2023-04-30T04:25:51.026Z,6.27
2023-04-30T04:28:19.666Z,6.03
2023-04-30T04:30:49.462Z,5.83
2023-04-30T04:33:17.850Z,6.00
2023-04-30T04:35:46.488Z,5.23
2023-04-30T04:38:15.055Z,5.70
2023-04-30T04:40:43.378Z,5.93
2023-04-30T04:43:12.352Z,5.97
2023-04-30T04:45:41.591Z,6.13
2023-04-30T04:48:11.338Z,6.60
2023-04-30T04:50:39.914Z,5.97
2023-04-30T04:53:08.349Z,5.80
2023-04-30T04:55:36.873Z,5.37
2023-04-30T04:58:05.152Z,5.83
2023-04-30T05:00:33.816Z,5.63
2023-04-30T05:03:02.254Z,5.43
2023-04-30T05:05:34.957Z,5.87
2023-04-30T05:08:05.862Z,5.37
2023-04-30T05:10:35.030Z,5.43
2023-04-30T05:13:03.743Z,5.90
2023-04-30T05:15:33.321Z,6.30
2023-04-30T05:18:01.754Z,6.17
2023-04-30T05:20:30.140Z,6.43
2023-04-30T05:23:03.300Z,5.73
2023-04-30T05:25:32.815Z,6.13
2023-04-30T05:28:01.159Z,5.67
2023-04-30T05:30:30.785Z,6.47
2023-04-30T05:33:00.921Z,5.97
2023-04-30T05:35:30.662Z,6.27
2023-04-30T05:37:59.022Z,6.07
2023-04-30T05:40:28.701Z,6.27
2023-04-30T05:42:59.272Z,6.30
2023-04-30T05:45:27.755Z,5.83
2023-04-30T05:47:56.183Z,6.00
2023-04-30T05:50:24.711Z,6.67
2023-04-30T05:52:53.072Z,6.23
2023-04-30T05:55:21.685Z,5.93
2023-04-30T05:57:51.447Z,5.77
2023-04-30T06:00:19.892Z,6.17
2023-04-30T06:02:48.428Z,6.37
2023-04-30T06:05:17.039Z,6.77
2023-04-30T06:07:45.869Z,6.20
2023-04-30T06:10:15.514Z,6.23
2023-04-30T06:12:45.007Z,5.80
2023-04-30T06:15:15.039Z,6.07
2023-04-30T06:17:44.114Z,5.40
2023-04-30T06:20:14.780Z,5.90
2023-04-30T06:22:43.089Z,5.90
2023-04-30T06:25:11.696Z,5.83
2023-04-30T06:27:40.103Z,6.37
2023-04-30T06:30:09.122Z,5.40
2023-04-30T06:32:41.473Z,5.77
2023-04-30T06:35:11.324Z,5.53
2023-04-30T06:37:39.648Z,5.60
2023-04-30T06:40:08.550Z,6.17
2023-04-30T06:42:37.550Z,5.70
2023-04-30T06:45:07.418Z,5.80
2023-04-30T06:47:37.843Z,6.43
2023-04-30T06:50:08.583Z,5.10
2023-04-30T06:52:41.406Z,5.40
2023-04-30T06:55:11.081Z,6.23
2023-04-30T06:57:42.198Z,5.00
2023-04-30T07:00:10.748Z,5.63
2023-04-30T07:02:39.843Z,5.47
2023-04-30T07:05:11.357Z,5.30
2023-04-30T07:07:42.896Z,6.20
2023-04-30T07:10:11.582Z,5.87
2023-04-30T07:12:40.075Z,5.17
2023-04-30T07:15:09.306Z,5.30
2023-04-30T07:17:38.850Z,5.77
2023-04-30T07:20:07.611Z,5.33
2023-04-30T07:22:38.301Z,5.07
2023-04-30T07:25:07.382Z,5.03
2023-04-30T07:27:36.029Z,5.93
2023-04-30T07:30:04.551Z,5.03
2023-04-30T07:32:33.841Z,5.63
2023-04-30T07:35:02.335Z,4.77
2023-04-30T07:37:32.110Z,5.20
2023-04-30T07:40:04.506Z,5.67
2023-04-30T07:42:33.253Z,5.03
2023-04-30T07:45:02.471Z,4.60
2023-04-30T07:47:31.239Z,4.90
2023-04-30T07:49:59.546Z,4.53
2023-04-30T07:52:31.181Z,5.50
2023-04-30T07:54:59.882Z,5.43
2023-04-30T07:57:31.970Z,6.47
2023-04-30T08:00:04.089Z,5.50
2023-04-30T08:02:34.766Z,5.87
2023-04-30T08:05:04.116Z,5.63
2023-04-30T08:07:35.693Z,6.17
2023-04-30T08:10:04.374Z,6.60
2023-04-30T08:12:39.101Z,5.80
2023-04-30T08:15:08.505Z,6.13
2023-04-30T08:23:09.983Z,5.43
2023-04-30T08:25:38.420Z,5.00
2023-04-30T08:28:08.397Z,4.97
2023-04-30T08:33:34.331Z,4.63
2023-04-30T08:36:07.964Z,5.13
2023-04-30T08:38:37.587Z,4.33
2023-04-30T08:41:09.471Z,4.90
2023-04-30T08:43:40.657Z,4.93
2023-04-30T08:46:14.019Z,4.67
2023-04-30T08:51:42.603Z,4.00
2023-04-30T08:54:13.833Z,4.80
2023-04-30T08:56:42.823Z,4.37
2023-04-30T08:59:17.033Z,5.27
2023-04-30T09:01:45.900Z,4.67
2023-04-30T09:04:15.507Z,5.27
2023-04-30T09:06:45.549Z,4.20
2023-04-30T09:09:15.124Z,3.90
2023-04-30T09:11:43.944Z,4.37
2023-04-30T09:19:34.195Z,4.00
2023-04-30T09:22:19.973Z,3.53
2023-04-30T09:24:49.277Z,3.90
2023-04-30T09:27:19.850Z,3.83
2023-04-30T09:29:48.922Z,3.40
2023-04-30T09:32:18.409Z,4.10
2023-04-30T09:34:49.447Z,3.90
2023-04-30T09:37:17.788Z,4.33
2023-04-30T09:42:33.789Z,3.37
2023-04-30T09:45:02.539Z,4.50
2023-04-30T09:47:49.648Z,4.03
2023-04-30T09:50:25.615Z,4.20
2023-04-30T09:52:55.702Z,4.67
2023-04-30T09:55:24.421Z,4.60
2023-04-30T09:57:54.557Z,4.37
2023-04-30T10:00:25.614Z,4.40
2023-04-30T10:02:56.691Z,4.30
2023-04-30T10:05:27.381Z,4.47
2023-04-30T10:08:01.777Z,4.20
2023-04-30T10:10:38.424Z,4.20
2023-04-30T10:13:09.856Z,3.80
2023-04-30T10:15:40.072Z,4.47
2023-04-30T10:18:10.765Z,3.50
2023-04-30T10:20:40.789Z,3.80
2023-04-30T10:23:13.534Z,2.90
2023-04-30T10:25:44.748Z,3.13
2023-04-30T10:30:56.884Z,2.70
2023-04-30T10:33:28.425Z,3.00
2023-04-30T10:36:01.890Z,3.63
2023-04-30T10:38:32.894Z,3.30
2023-04-30T10:41:02.730Z,3.40
2023-04-30T10:43:33.516Z,3.40
2023-04-30T10:46:01.827Z,3.33
2023-04-30T10:48:32.869Z,3.47
2023-04-30T10:51:07.085Z,3.90
2023-04-30T10:53:40.280Z,3.00
2023-04-30T10:56:18.159Z,3.40
2023-04-30T10:58:50.156Z,3.07
2023-04-30T11:01:18.860Z,3.10
2023-04-30T11:04:12.845Z,3.07
2023-04-30T11:06:57.192Z,3.10
2023-04-30T11:09:44.304Z,3.33
2023-04-30T11:12:14.320Z,2.80
2023-04-30T11:14:56.120Z,2.90
2023-04-30T11:17:25.428Z,3.40
2023-04-30T11:19:55.822Z,2.43
2023-04-30T11:22:27.735Z,3.00
2023-04-30T11:25:21.583Z,2.80
2023-04-30T11:27:58.263Z,3.37
2023-04-30T11:30:26.891Z,2.83
2023-04-30T11:33:10.432Z,2.90
2023-04-30T11:35:43.220Z,3.07
2023-04-30T11:38:14.892Z,2.80
2023-04-30T11:41:02.231Z,2.67
2023-04-30T11:43:36.243Z,2.17
2023-04-30T11:46:26.407Z,2.50
2023-04-30T11:48:58.367Z,2.87
2023-04-30T11:51:26.962Z,3.17
2023-04-30T11:53:58.806Z,2.67
2023-04-30T11:56:27.748Z,2.90
2023-04-30T11:58:56.187Z,3.10
2023-04-30T12:01:34.415Z,3.30
2023-04-30T12:04:04.170Z,2.70
2023-04-30T12:06:32.715Z,2.63
2023-04-30T12:09:09.088Z,4.13
2023-04-30T12:11:37.898Z,3.07
2023-04-30T12:14:07.816Z,2.83
2023-04-30T12:16:44.285Z,2.67
2023-04-30T12:19:13.663Z,2.87
2023-04-30T12:21:44.854Z,3.17
2023-04-30T12:24:15.103Z,2.13
2023-04-30T12:26:43.852Z,3.17
2023-04-30T12:29:15.273Z,2.67
2023-04-30T12:31:44.948Z,3.37
2023-04-30T12:34:14.504Z,2.77
2023-04-30T12:36:43.942Z,2.90
2023-04-30T12:39:16.423Z,2.87
2023-04-30T12:41:45.506Z,2.67
2023-04-30T12:44:20.375Z,2.70
2023-04-30T12:46:49.323Z,2.90
2023-04-30T12:49:28.296Z,3.00
2023-04-30T12:52:04.067Z,3.20
2023-04-30T12:54:34.558Z,3.33
2023-04-30T12:57:03.529Z,2.73
2023-04-30T12:59:32.364Z,3.07
2023-04-30T13:02:12.469Z,2.97
2023-04-30T13:04:41.467Z,2.57
2023-04-30T13:07:10.051Z,2.80
2023-04-30T13:09:40.989Z,2.93
2023-04-30T13:12:10.089Z,2.73
2023-04-30T13:14:38.596Z,2.53
2023-04-30T13:17:09.806Z,2.77
2023-04-30T13:19:39.879Z,3.50
2023-04-30T13:22:08.270Z,2.60
2023-04-30T13:24:37.341Z,2.70
2023-04-30T13:27:07.082Z,2.77
2023-04-30T13:29:35.568Z,2.90
2023-04-30T13:32:04.500Z,2.30
2023-04-30T13:34:32.935Z,2.27
2023-04-30T13:37:01.705Z,2.90
2023-04-30T13:39:30.370Z,2.60
2023-04-30T13:41:58.742Z,2.33
2023-04-30T13:44:33.987Z,2.23
2023-04-30T13:47:02.512Z,2.70
2023-04-30T13:49:30.978Z,2.40
2023-04-30T13:52:00.359Z,2.30
2023-04-30T13:54:28.770Z,2.63
2023-04-30T13:56:57.301Z,2.27
2023-04-30T13:59:26.393Z,2.43
2023-04-30T14:01:56.143Z,2.43
2023-04-30T14:04:24.879Z,2.30
2023-04-30T14:06:57.780Z,2.10
2023-04-30T14:09:26.929Z,2.40
2023-04-30T14:11:55.997Z,2.43
2023-04-30T14:14:25.170Z,2.10
2023-04-30T14:16:53.868Z,2.40
2023-04-30T14:19:24.738Z,1.87
2023-04-30T14:21:53.137Z,1.90
2023-04-30T14:24:22.080Z,2.20
2023-04-30T14:26:50.600Z,2.20
2023-04-30T14:29:21.747Z,2.23
2023-04-30T14:31:50.837Z,2.43
2023-04-30T14:34:19.945Z,2.03
2023-04-30T14:36:54.236Z,2.40
2023-04-30T14:39:22.716Z,2.43
2023-04-30T14:41:51.722Z,2.50
2023-04-30T14:44:23.824Z,3.00
2023-04-30T14:46:52.681Z,2.47
2023-04-30T14:49:21.047Z,2.50
2023-04-30T14:51:51.003Z,2.63
2023-04-30T14:54:19.402Z,2.10
2023-04-30T14:56:48.577Z,2.30
2023-04-30T14:59:17.824Z,2.50
2023-04-30T15:01:46.219Z,2.20
2023-04-30T15:04:14.641Z,2.47
2023-04-30T15:06:43.307Z,2.50
2023-04-30T15:09:13.830Z,2.20
2023-04-30T15:11:42.303Z,2.33
2023-04-30T15:14:10.728Z,2.50
2023-04-30T15:16:39.380Z,2.80
2023-04-30T15:19:07.641Z,2.33
2023-04-30T15:21:36.038Z,2.43
2023-04-30T15:24:04.448Z,2.70
2023-04-30T15:26:34.835Z,2.23
2023-04-30T15:29:03.679Z,2.43
2023-04-30T15:31:32.975Z,2.47
2023-04-30T15:34:01.531Z,2.50
2023-04-30T15:36:30.306Z,2.63
2023-04-30T15:38:58.694Z,2.20
2023-04-30T15:41:27.076Z,2.97
2023-04-30T15:43:56.956Z,2.57
2023-04-30T15:46:25.586Z,3.10
2023-04-30T15:48:54.207Z,2.60
2023-04-30T15:51:23.318Z,2.63
2023-04-30T15:53:54.322Z,2.70
2023-04-30T15:56:25.881Z,2.47
2023-04-30T15:59:01.727Z,2.73
2023-04-30T16:01:32.428Z,2.77
2023-04-30T16:04:01.265Z,2.03
2023-04-30T16:06:32.925Z,2.83
2023-04-30T16:09:06.534Z,2.40
2023-04-30T16:11:34.999Z,2.20
2023-04-30T16:14:03.446Z,2.50
2023-04-30T16:16:33.545Z,2.90
2023-04-30T16:19:02.405Z,2.60
2023-04-30T16:21:34.556Z,2.40
2023-04-30T16:24:04.357Z,2.50
2023-04-30T16:26:34.881Z,2.20
2023-04-30T16:29:04.300Z,2.37
2023-04-30T16:31:35.750Z,2.20
2023-04-30T16:34:11.677Z,2.60
2023-04-30T16:36:42.655Z,2.40
2023-04-30T16:39:12.078Z,2.90
2023-04-30T16:41:42.815Z,2.50
2023-04-30T16:44:11.467Z,2.70
2023-04-30T16:46:41.517Z,2.33
2023-04-30T16:49:10.167Z,2.60
2023-04-30T16:51:38.635Z,2.83
2023-04-30T16:54:07.412Z,2.90
2023-04-30T16:56:36.027Z,2.90
2023-04-30T16:59:05.224Z,2.87
2023-04-30T17:01:34.718Z,3.13
2023-04-30T17:04:04.893Z,2.53
2023-04-30T17:06:35.746Z,2.83
2023-04-30T17:09:04.389Z,2.63
2023-04-30T17:11:39.846Z,2.60
2023-04-30T17:14:10.544Z,2.50
2023-04-30T17:16:39.099Z,2.40
2023-04-30T17:19:09.322Z,2.53
2023-04-30T17:21:38.399Z,2.60
2023-04-30T17:24:07.904Z,2.70
2023-04-30T17:26:36.671Z,2.87
2023-04-30T17:29:06.872Z,2.70
2023-04-30T17:31:38.255Z,2.60
2023-04-30T17:34:07.200Z,2.60
2023-04-30T17:36:36.937Z,2.53
2023-04-30T17:39:09.414Z,2.40
2023-04-30T17:41:38.109Z,3.00
2023-04-30T17:44:06.827Z,2.70
2023-04-30T17:46:35.980Z,2.87
2023-04-30T17:49:04.751Z,2.50
2023-04-30T17:51:33.389Z,3.00
2023-04-30T17:54:03.592Z,3.00
2023-04-30T17:56:33.398Z,3.00
2023-04-30T17:59:02.552Z,3.00
2023-04-30T18:01:36.187Z,3.00
2023-04-30T18:04:04.684Z,3.23
2023-04-30T18:06:33.347Z,2.83
2023-04-30T18:09:04.224Z,3.10
2023-04-30T18:11:33.701Z,2.90
2023-04-30T18:14:04.904Z,2.97
2023-04-30T18:16:33.800Z,3.30
2023-04-30T18:19:02.582Z,3.27
2023-04-30T18:21:33.794Z,2.73
2023-04-30T18:24:03.967Z,3.37
2023-04-30T18:26:36.330Z,3.20
2023-04-30T18:29:04.862Z,2.83
2023-04-30T18:31:47.278Z,3.40
2023-04-30T18:34:18.015Z,3.80
2023-04-30T18:36:46.501Z,3.57
2023-04-30T18:39:16.677Z,3.20
2023-04-30T18:41:48.504Z,3.40
2023-04-30T18:44:17.910Z,3.27
2023-04-30T18:46:47.354Z,2.83
2023-04-30T18:49:16.999Z,3.33
2023-04-30T18:51:45.354Z,2.93
2023-04-30T18:54:15.460Z,3.10
2023-04-30T18:56:46.373Z,2.87
2023-04-30T18:59:16.219Z,3.37
2023-04-30T19:01:54.428Z,3.23
2023-04-30T19:04:23.109Z,3.20
2023-04-30T19:06:52.441Z,2.90
2023-04-30T19:13:00.906Z,3.33
2023-04-30T19:15:32.155Z,2.90
2023-04-30T19:18:00.812Z,2.70
2023-04-30T19:20:30.684Z,3.00
2023-04-30T19:22:59.476Z,3.27
2023-04-30T19:25:28.954Z,2.80
2023-04-30T19:27:57.836Z,2.83
2023-04-30T19:30:27.144Z,2.80
2023-04-30T19:32:57.271Z,3.00
2023-04-30T19:35:25.763Z,3.03
2023-04-30T19:37:56.440Z,2.50
2023-04-30T19:40:25.833Z,3.20
2023-04-30T19:43:10.054Z,2.87
2023-04-30T19:45:39.851Z,2.77
2023-04-30T19:48:26.102Z,3.10
2023-04-30T19:51:04.963Z,2.90
2023-04-30T19:53:34.196Z,3.30
2023-04-30T19:56:04.093Z,3.20
2023-04-30T19:58:34.271Z,3.03
2023-04-30T20:01:03.124Z,3.30
2023-04-30T20:03:34.254Z,3.77
2023-04-30T20:06:04.869Z,3.30
2023-04-30T20:08:35.168Z,2.97
2023-04-30T20:11:04.377Z,3.23
2023-04-30T20:19:34.545Z,3.07
2023-04-30T20:22:16.486Z,3.13
2023-04-30T20:28:08.709Z,3.43
2023-04-30T20:31:01.544Z,3.00
2023-04-30T20:33:39.730Z,3.27
2023-04-30T20:36:37.962Z,3.50
2023-04-30T20:39:42.068Z,3.90
2023-04-30T20:45:19.774Z,3.10
2023-04-30T20:48:08.046Z,3.17
2023-04-30T20:50:36.657Z,3.50
2023-04-30T20:53:05.401Z,3.90
2023-04-30T20:59:07.581Z,3.70
2023-04-30T21:01:41.686Z,3.40
2023-04-30T21:04:12.052Z,3.37
2023-04-30T21:06:40.562Z,3.50
2023-04-30T21:09:09.379Z,3.20
2023-04-30T21:11:41.450Z,3.90
2023-04-30T21:14:11.192Z,3.50
2023-04-30T21:16:43.174Z,3.80
2023-04-30T21:19:21.894Z,3.67
2023-04-30T21:22:07.334Z,3.77
2023-04-30T21:27:35.790Z,3.53
2023-04-30T21:32:48.196Z,4.03
2023-04-30T21:35:20.210Z,4.00
2023-04-30T21:40:33.725Z,3.67
2023-04-30T21:43:03.663Z,3.80
2023-04-30T21:45:34.900Z,4.70
2023-04-30T21:48:03.552Z,3.23
2023-04-30T21:50:35.557Z,3.43
2023-04-30T21:53:05.088Z,3.93
2023-04-30T21:55:34.161Z,3.73
2023-04-30T21:58:02.601Z,3.83
2023-04-30T22:00:31.483Z,3.23
2023-04-30T22:03:00.213Z,3.87
2023-04-30T22:05:28.669Z,3.27
2023-04-30T22:07:58.755Z,3.40
2023-04-30T22:10:27.647Z,3.60
2023-04-30T22:12:58.195Z,4.00
2023-04-30T22:15:31.621Z,3.63
2023-04-30T22:18:09.705Z,3.53
2023-04-30T22:20:38.210Z,3.60
2023-04-30T22:23:08.375Z,3.73
2023-04-30T22:25:36.834Z,3.67
2023-04-30T22:28:05.548Z,3.67
2023-04-30T22:30:34.036Z,3.47
2023-04-30T22:33:02.753Z,4.10
2023-04-30T22:35:32.970Z,3.67
2023-04-30T22:38:04.451Z,3.77
2023-04-30T22:40:35.072Z,3.27
2023-04-30T22:43:05.271Z,3.23
2023-04-30T22:45:36.980Z,3.67
2023-04-30T22:48:05.961Z,2.90
2023-04-30T22:50:35.599Z,3.20
2023-04-30T22:53:05.754Z,3.20
2023-04-30T22:55:39.324Z,3.23
2023-04-30T22:58:25.666Z,3.20
2023-04-30T23:00:54.160Z,3.70
2023-04-30T23:03:23.290Z,3.10
2023-04-30T23:05:51.658Z,3.90
2023-04-30T23:08:20.379Z,3.43
2023-04-30T23:10:50.253Z,3.43
2023-04-30T23:13:18.715Z,4.07
2023-04-30T23:15:47.422Z,3.33
2023-04-30T23:18:16.091Z,3.57
2023-04-30T23:20:44.310Z,3.73
2023-04-30T23:23:12.784Z,3.80
2023-04-30T23:25:41.399Z,4.10
2023-04-30T23:28:11.524Z,4.07
2023-04-30T23:30:40.034Z,3.90
2023-04-30T23:33:08.400Z,4.23
2023-04-30T23:35:36.919Z,3.67
2023-04-30T23:38:05.304Z,3.83
2023-04-30T23:40:34.022Z,4.23
2023-04-30T23:43:02.766Z,3.30
2023-04-30T23:45:32.527Z,3.77
2023-04-30T23:48:01.058Z,4.00
2023-04-30T23:50:30.131Z,3.63
2023-04-30T23:52:58.636Z,3.80
2023-04-30T23:55:27.290Z,3.80
2023-04-30T23:57:55.628Z,4.23
